sensor_id;sensor_type;location;lat;lon;timestamp;temperature;humidity
34279;DHT22;20538;51.528;9.942;2023-04-24T00:00:08;12.00;99.90
34279;DHT22;20538;51.528;9.942;2023-04-24T00:02:38;12.00;99.90
34279;DHT22;20538;51.528;9.942;2023-04-24T00:05:05;12.00;99.90
34279;DHT22;20538;51.528;9.942;2023-04-24T00:07:31;12.00;99.90
34279;DHT22;20538;51.528;9.942;2023-04-24T00:09:57;12.00;99.90
34279;DHT22;20538;51.528;9.942;2023-04-24T00:12:23;12.10;99.90
34279;DHT22;20538;51.528;9.942;2023-04-24T00:14:49;12.10;99.90
34279;DHT22;20538;51.528;9.942;2023-04-24T00:17:15;12.10;99.90
34279;DHT22;20538;51.528;9.942;2023-04-24T00:19:41;12.00;99.90
34279;DHT22;20538;51.528;9.942;2023-04-24T00:22:07;12.00;99.90
34279;DHT22;20538;51.528;9.942;2023-04-24T00:24:33;12.00;99.90
34279;DHT22;20538;51.528;9.942;2023-04-24T00:26:58;12.00;99.90
34279;DHT22;20538;51.528;9.942;2023-04-24T00:29:26;11.90;99.90
34279;DHT22;20538;51.528;9.942;2023-04-24T00:31:51;11.90;99.90
34279;DHT22;20538;51.528;9.942;2023-04-24T00:34:17;11.80;99.90
34279;DHT22;20538;51.528;9.942;2023-04-24T00:36:43;11.80;99.90
34279;DHT22;20538;51.528;9.942;2023-04-24T00:39:09;11.80;99.90
34279;DHT22;20538;51.528;9.942;2023-04-24T00:41:35;11.70;99.90
34279;DHT22;20538;51.528;9.942;2023-04-24T00:44:01;11.70;99.90
34279;DHT22;20538;51.528;9.942;2023-04-24T00:46:26;11.70;99.90
34279;DHT22;20538;51.528;9.942;2023-04-24T00:48:52;11.70;99.90
34279;DHT22;20538;51.528;9.942;2023-04-24T00:51:18;11.70;99.90
34279;DHT22;20538;51.528;9.942;2023-04-24T00:53:44;11.60;99.90
34279;DHT22;20538;51.528;9.942;2023-04-24T00:56:09;11.60;99.90
34279;DHT22;20538;51.528;9.942;2023-04-24T00:58:35;11.60;99.90
34279;DHT22;20538;51.528;9.942;2023-04-24T01:01:02;11.50;99.90
34279;DHT22;20538;51.528;9.942;2023-04-24T01:03:30;11.50;99.90
34279;DHT22;20538;51.528;9.942;2023-04-24T01:05:57;11.50;99.90
34279;DHT22;20538;51.528;9.942;2023-04-24T01:08:24;11.40;99.90
34279;DHT22;20538;51.528;9.942;2023-04-24T01:10:54;11.30;99.90
34279;DHT22;20538;51.528;9.942;2023-04-24T01:13:20;11.30;99.90
34279;DHT22;20538;51.528;9.942;2023-04-24T01:15:46;11.30;99.90
34279;DHT22;20538;51.528;9.942;2023-04-24T01:18:13;11.20;99.90
34279;DHT22;20538;51.528;9.942;2023-04-24T01:20:42;11.20;99.90
34279;DHT22;20538;51.528;9.942;2023-04-24T01:23:10;11.20;99.90
34279;DHT22;20538;51.528;9.942;2023-04-24T01:25:36;11.10;99.90
34279;DHT22;20538;51.528;9.942;2023-04-24T01:28:02;11.10;99.90
34279;DHT22;20538;51.528;9.942;2023-04-24T01:30:30;11.10;99.90
34279;DHT22;20538;51.528;9.942;2023-04-24T01:32:56;11.10;99.90
34279;DHT22;20538;51.528;9.942;2023-04-24T01:35:23;11.00;99.90
34279;DHT22;20538;51.528;9.942;2023-04-24T01:37:49;11.10;99.90
34279;DHT22;20538;51.528;9.942;2023-04-24T01:40:15;11.10;99.90
34279;DHT22;20538;51.528;9.942;2023-04-24T01:42:41;11.10;99.90
34279;DHT22;20538;51.528;9.942;2023-04-24T01:45:10;11.10;99.90
34279;DHT22;20538;51.528;9.942;2023-04-24T01:47:36;11.10;99.90
34279;DHT22;20538;51.528;9.942;2023-04-24T01:50:03;11.00;99.90
34279;DHT22;20538;51.528;9.942;2023-04-24T01:52:29;11.00;99.90
34279;DHT22;20538;51.528;9.942;2023-04-24T01:54:59;10.90;99.90
34279;DHT22;20538;51.528;9.942;2023-04-24T01:57:25;10.90;99.90
34279;DHT22;20538;51.528;9.942;2023-04-24T01:59:51;10.80;99.90
34279;DHT22;20538;51.528;9.942;2023-04-24T02:02:17;10.70;99.90
34279;DHT22;20538;51.528;9.942;2023-04-24T02:04:43;10.70;99.90
34279;DHT22;20538;51.528;9.942;2023-04-24T02:07:09;10.70;99.90
34279;DHT22;20538;51.528;9.942;2023-04-24T02:09:34;10.70;99.90
34279;DHT22;20538;51.528;9.942;2023-04-24T02:12:00;10.60;99.90
34279;DHT22;20538;51.528;9.942;2023-04-24T02:14:26;10.50;99.90
34279;DHT22;20538;51.528;9.942;2023-04-24T02:16:51;10.60;99.90
34279;DHT22;20538;51.528;9.942;2023-04-24T02:19:18;10.60;99.90
34279;DHT22;20538;51.528;9.942;2023-04-24T02:21:44;10.60;99.90
34279;DHT22;20538;51.528;9.942;2023-04-24T02:24:10;10.50;99.90
34279;DHT22;20538;51.528;9.942;2023-04-24T02:26:35;10.40;99.90
34279;DHT22;20538;51.528;9.942;2023-04-24T02:29:01;10.40;99.90
34279;DHT22;20538;51.528;9.942;2023-04-24T02:31:27;10.30;99.90
34279;DHT22;20538;51.528;9.942;2023-04-24T02:33:52;10.30;99.90
34279;DHT22;20538;51.528;9.942;2023-04-24T02:36:18;10.30;99.90
34279;DHT22;20538;51.528;9.942;2023-04-24T02:38:44;10.30;99.90
34279;DHT22;20538;51.528;9.942;2023-04-24T02:41:09;10.40;99.90
34279;DHT22;20538;51.528;9.942;2023-04-24T02:43:35;10.60;99.90
34279;DHT22;20538;51.528;9.942;2023-04-24T02:46:01;10.70;99.90
34279;DHT22;20538;51.528;9.942;2023-04-24T02:48:26;10.80;99.90
34279;DHT22;20538;51.528;9.942;2023-04-24T02:50:52;10.90;99.90
34279;DHT22;20538;51.528;9.942;2023-04-24T02:53:18;11.00;99.90
34279;DHT22;20538;51.528;9.942;2023-04-24T02:55:44;11.10;99.90
34279;DHT22;20538;51.528;9.942;2023-04-24T02:58:10;11.10;99.90
34279;DHT22;20538;51.528;9.942;2023-04-24T03:00:38;11.10;99.90
34279;DHT22;20538;51.528;9.942;2023-04-24T03:03:04;11.10;99.90
34279;DHT22;20538;51.528;9.942;2023-04-24T03:05:29;11.20;99.90
34279;DHT22;20538;51.528;9.942;2023-04-24T03:07:56;11.20;99.90
34279;DHT22;20538;51.528;9.942;2023-04-24T03:10:22;11.10;99.90
34279;DHT22;20538;51.528;9.942;2023-04-24T03:12:48;11.10;99.90
34279;DHT22;20538;51.528;9.942;2023-04-24T03:15:14;11.10;99.90
34279;DHT22;20538;51.528;9.942;2023-04-24T03:17:40;11.10;99.90
34279;DHT22;20538;51.528;9.942;2023-04-24T03:20:06;11.20;99.90
34279;DHT22;20538;51.528;9.942;2023-04-24T03:22:33;11.20;99.90
34279;DHT22;20538;51.528;9.942;2023-04-24T03:24:59;11.30;99.90
34279;DHT22;20538;51.528;9.942;2023-04-24T03:27:25;11.20;99.90
34279;DHT22;20538;51.528;9.942;2023-04-24T03:29:51;11.30;99.90
34279;DHT22;20538;51.528;9.942;2023-04-24T03:32:24;11.30;99.90
34279;DHT22;20538;51.528;9.942;2023-04-24T03:34:50;11.40;99.90
34279;DHT22;20538;51.528;9.942;2023-04-24T03:37:16;11.30;99.90
34279;DHT22;20538;51.528;9.942;2023-04-24T03:39:42;11.40;99.90
34279;DHT22;20538;51.528;9.942;2023-04-24T03:42:08;11.40;99.90
34279;DHT22;20538;51.528;9.942;2023-04-24T03:44:34;11.30;99.90
34279;DHT22;20538;51.528;9.942;2023-04-24T03:47:00;11.30;99.90
34279;DHT22;20538;51.528;9.942;2023-04-24T03:49:26;11.10;99.90
34279;DHT22;20538;51.528;9.942;2023-04-24T03:51:51;11.10;99.90
34279;DHT22;20538;51.528;9.942;2023-04-24T03:54:18;11.10;99.90
34279;DHT22;20538;51.528;9.942;2023-04-24T03:56:44;11.20;99.90
34279;DHT22;20538;51.528;9.942;2023-04-24T03:59:10;11.20;99.90
34279;DHT22;20538;51.528;9.942;2023-04-24T04:01:35;11.10;99.90
34279;DHT22;20538;51.528;9.942;2023-04-24T04:04:03;11.00;99.90
34279;DHT22;20538;51.528;9.942;2023-04-24T04:06:29;10.90;99.90
34279;DHT22;20538;51.528;9.942;2023-04-24T04:08:56;11.00;99.90
34279;DHT22;20538;51.528;9.942;2023-04-24T04:11:22;11.00;99.90
34279;DHT22;20538;51.528;9.942;2023-04-24T04:13:47;11.10;99.90
34279;DHT22;20538;51.528;9.942;2023-04-24T04:16:13;11.10;99.90
34279;DHT22;20538;51.528;9.942;2023-04-24T04:18:39;11.20;99.90
34279;DHT22;20538;51.528;9.942;2023-04-24T04:21:05;11.20;99.90
34279;DHT22;20538;51.528;9.942;2023-04-24T04:23:30;11.30;99.90
34279;DHT22;20538;51.528;9.942;2023-04-24T04:25:57;11.30;99.90
34279;DHT22;20538;51.528;9.942;2023-04-24T04:28:23;11.20;99.90
34279;DHT22;20538;51.528;9.942;2023-04-24T04:30:50;11.10;99.90
34279;DHT22;20538;51.528;9.942;2023-04-24T04:33:22;11.10;99.90
34279;DHT22;20538;51.528;9.942;2023-04-24T04:35:47;11.10;99.90
34279;DHT22;20538;51.528;9.942;2023-04-24T04:38:22;11.00;99.90
34279;DHT22;20538;51.528;9.942;2023-04-24T04:40:47;10.90;99.90
34279;DHT22;20538;51.528;9.942;2023-04-24T04:43:13;10.90;99.90
34279;DHT22;20538;51.528;9.942;2023-04-24T04:45:40;11.00;99.90
34279;DHT22;20538;51.528;9.942;2023-04-24T04:48:08;11.00;99.90
34279;DHT22;20538;51.528;9.942;2023-04-24T04:50:35;11.00;99.90
34279;DHT22;20538;51.528;9.942;2023-04-24T04:53:00;11.10;99.90
34279;DHT22;20538;51.528;9.942;2023-04-24T04:55:26;11.20;99.90
34279;DHT22;20538;51.528;9.942;2023-04-24T04:57:52;11.30;99.90
34279;DHT22;20538;51.528;9.942;2023-04-24T05:00:18;11.30;99.90
34279;DHT22;20538;51.528;9.942;2023-04-24T05:02:43;11.40;99.90
34279;DHT22;20538;51.528;9.942;2023-04-24T05:05:09;11.40;99.90
34279;DHT22;20538;51.528;9.942;2023-04-24T05:07:35;11.40;99.90
34279;DHT22;20538;51.528;9.942;2023-04-24T05:10:01;11.50;99.90
34279;DHT22;20538;51.528;9.942;2023-04-24T05:12:26;11.60;99.90
34279;DHT22;20538;51.528;9.942;2023-04-24T05:14:52;11.60;99.90
34279;DHT22;20538;51.528;9.942;2023-04-24T05:17:18;11.60;99.90
34279;DHT22;20538;51.528;9.942;2023-04-24T05:19:44;11.70;99.90
34279;DHT22;20538;51.528;9.942;2023-04-24T05:22:10;11.70;99.90
34279;DHT22;20538;51.528;9.942;2023-04-24T05:24:37;11.80;99.90
34279;DHT22;20538;51.528;9.942;2023-04-24T05:27:03;11.80;99.90
34279;DHT22;20538;51.528;9.942;2023-04-24T05:29:30;11.80;99.90
34279;DHT22;20538;51.528;9.942;2023-04-24T05:31:59;11.80;99.90
34279;DHT22;20538;51.528;9.942;2023-04-24T05:34:25;11.90;99.90
34279;DHT22;20538;51.528;9.942;2023-04-24T05:36:51;11.90;99.90
34279;DHT22;20538;51.528;9.942;2023-04-24T05:39:17;12.00;99.90
34279;DHT22;20538;51.528;9.942;2023-04-24T05:41:43;12.10;99.90
34279;DHT22;20538;51.528;9.942;2023-04-24T05:44:09;12.20;99.90
34279;DHT22;20538;51.528;9.942;2023-04-24T05:46:35;12.30;99.90
34279;DHT22;20538;51.528;9.942;2023-04-24T05:49:01;12.30;99.90
34279;DHT22;20538;51.528;9.942;2023-04-24T05:51:27;12.20;99.90
34279;DHT22;20538;51.528;9.942;2023-04-24T05:53:53;12.30;99.90
34279;DHT22;20538;51.528;9.942;2023-04-24T05:56:19;12.30;99.90
34279;DHT22;20538;51.528;9.942;2023-04-24T05:58:46;12.30;99.90
34279;DHT22;20538;51.528;9.942;2023-04-24T06:01:12;12.20;99.90
34279;DHT22;20538;51.528;9.942;2023-04-24T06:03:38;12.30;99.90
34279;DHT22;20538;51.528;9.942;2023-04-24T06:06:06;12.50;99.90
34279;DHT22;20538;51.528;9.942;2023-04-24T06:08:32;12.50;99.90
34279;DHT22;20538;51.528;9.942;2023-04-24T06:10:58;12.60;99.90
34279;DHT22;20538;51.528;9.942;2023-04-24T06:13:24;12.70;99.90
34279;DHT22;20538;51.528;9.942;2023-04-24T06:15:49;12.70;99.90
34279;DHT22;20538;51.528;9.942;2023-04-24T06:18:15;12.60;99.90
34279;DHT22;20538;51.528;9.942;2023-04-24T06:20:41;12.60;99.90
34279;DHT22;20538;51.528;9.942;2023-04-24T06:23:07;12.50;99.90
34279;DHT22;20538;51.528;9.942;2023-04-24T06:25:32;12.50;99.90
34279;DHT22;20538;51.528;9.942;2023-04-24T06:27:58;12.30;99.90
34279;DHT22;20538;51.528;9.942;2023-04-24T06:30:24;12.20;99.90
34279;DHT22;20538;51.528;9.942;2023-04-24T06:32:50;12.10;99.90
34279;DHT22;20538;51.528;9.942;2023-04-24T06:35:16;12.00;99.90
34279;DHT22;20538;51.528;9.942;2023-04-24T06:37:42;12.10;99.90
34279;DHT22;20538;51.528;9.942;2023-04-24T06:40:08;12.20;99.90
34279;DHT22;20538;51.528;9.942;2023-04-24T06:42:35;12.10;99.90
34279;DHT22;20538;51.528;9.942;2023-04-24T06:45:01;12.20;99.90
34279;DHT22;20538;51.528;9.942;2023-04-24T06:47:27;12.00;99.90
34279;DHT22;20538;51.528;9.942;2023-04-24T06:49:53;11.90;99.90
34279;DHT22;20538;51.528;9.942;2023-04-24T06:52:19;11.70;99.90
34279;DHT22;20538;51.528;9.942;2023-04-24T06:54:45;11.60;99.90
34279;DHT22;20538;51.528;9.942;2023-04-24T06:57:10;11.70;99.90
34279;DHT22;20538;51.528;9.942;2023-04-24T06:59:37;11.60;99.90
34279;DHT22;20538;51.528;9.942;2023-04-24T07:02:03;11.70;99.90
34279;DHT22;20538;51.528;9.942;2023-04-24T07:04:29;11.90;99.90
34279;DHT22;20538;51.528;9.942;2023-04-24T07:06:55;11.90;99.90
34279;DHT22;20538;51.528;9.942;2023-04-24T07:09:23;11.80;99.90
34279;DHT22;20538;51.528;9.942;2023-04-24T07:11:51;11.90;99.90
34279;DHT22;20538;51.528;9.942;2023-04-24T07:14:17;12.10;99.90
34279;DHT22;20538;51.528;9.942;2023-04-24T07:16:43;12.40;99.90
34279;DHT22;20538;51.528;9.942;2023-04-24T07:19:09;12.50;99.90
34279;DHT22;20538;51.528;9.942;2023-04-24T07:21:35;12.70;99.90
34279;DHT22;20538;51.528;9.942;2023-04-24T07:24:00;12.80;99.90
34279;DHT22;20538;51.528;9.942;2023-04-24T07:26:28;13.10;99.90
34279;DHT22;20538;51.528;9.942;2023-04-24T07:28:54;13.10;99.90
34279;DHT22;20538;51.528;9.942;2023-04-24T07:31:20;13.20;99.90
34279;DHT22;20538;51.528;9.942;2023-04-24T07:33:46;12.90;99.90
34279;DHT22;20538;51.528;9.942;2023-04-24T07:36:12;13.00;99.90
34279;DHT22;20538;51.528;9.942;2023-04-24T07:38:42;12.80;99.90
34279;DHT22;20538;51.528;9.942;2023-04-24T07:41:08;12.90;99.90
34279;DHT22;20538;51.528;9.942;2023-04-24T07:43:34;13.10;99.90
34279;DHT22;20538;51.528;9.942;2023-04-24T07:45:59;13.20;99.90
34279;DHT22;20538;51.528;9.942;2023-04-24T07:48:25;13.10;99.90
34279;DHT22;20538;51.528;9.942;2023-04-24T07:50:52;12.80;99.90
34279;DHT22;20538;51.528;9.942;2023-04-24T07:53:17;12.70;99.90
34279;DHT22;20538;51.528;9.942;2023-04-24T07:55:43;12.80;99.90
34279;DHT22;20538;51.528;9.942;2023-04-24T07:58:09;12.50;99.90
34279;DHT22;20538;51.528;9.942;2023-04-24T08:00:34;12.70;99.90
34279;DHT22;20538;51.528;9.942;2023-04-24T08:03:00;13.10;99.90
34279;DHT22;20538;51.528;9.942;2023-04-24T08:05:26;13.50;99.90
34279;DHT22;20538;51.528;9.942;2023-04-24T08:07:54;13.50;99.90
34279;DHT22;20538;51.528;9.942;2023-04-24T08:10:21;13.50;99.90
34279;DHT22;20538;51.528;9.942;2023-04-24T08:12:46;13.50;99.90
34279;DHT22;20538;51.528;9.942;2023-04-24T08:15:12;13.50;99.90
34279;DHT22;20538;51.528;9.942;2023-04-24T08:17:38;13.30;99.90
34279;DHT22;20538;51.528;9.942;2023-04-24T08:20:04;13.00;99.90
34279;DHT22;20538;51.528;9.942;2023-04-24T08:22:31;12.90;99.90
34279;DHT22;20538;51.528;9.942;2023-04-24T08:24:56;12.90;99.90
34279;DHT22;20538;51.528;9.942;2023-04-24T08:27:23;12.90;99.90
34279;DHT22;20538;51.528;9.942;2023-04-24T08:29:49;12.70;99.90
34279;DHT22;20538;51.528;9.942;2023-04-24T08:32:15;12.70;99.90
34279;DHT22;20538;51.528;9.942;2023-04-24T08:34:41;12.90;99.90
34279;DHT22;20538;51.528;9.942;2023-04-24T08:37:06;12.70;99.90
34279;DHT22;20538;51.528;9.942;2023-04-24T08:39:32;12.70;99.90
34279;DHT22;20538;51.528;9.942;2023-04-24T08:41:59;12.50;99.90
34279;DHT22;20538;51.528;9.942;2023-04-24T08:44:34;12.80;99.90
34279;DHT22;20538;51.528;9.942;2023-04-24T08:47:02;13.50;99.90
34279;DHT22;20538;51.528;9.942;2023-04-24T08:49:28;13.80;99.90
34279;DHT22;20538;51.528;9.942;2023-04-24T08:51:54;14.00;99.90
34279;DHT22;20538;51.528;9.942;2023-04-24T08:54:21;14.40;99.90
34279;DHT22;20538;51.528;9.942;2023-04-24T08:56:48;14.20;99.90
34279;DHT22;20538;51.528;9.942;2023-04-24T08:59:15;14.20;99.90
34279;DHT22;20538;51.528;9.942;2023-04-24T09:01:41;14.50;99.90
34279;DHT22;20538;51.528;9.942;2023-04-24T09:04:10;14.70;99.90
34279;DHT22;20538;51.528;9.942;2023-04-24T09:06:40;14.70;99.90
34279;DHT22;20538;51.528;9.942;2023-04-24T09:09:06;14.80;99.90
34279;DHT22;20538;51.528;9.942;2023-04-24T09:11:34;14.90;99.90
34279;DHT22;20538;51.528;9.942;2023-04-24T09:14:00;14.80;99.90
34279;DHT22;20538;51.528;9.942;2023-04-24T09:16:27;14.50;99.90
34279;DHT22;20538;51.528;9.942;2023-04-24T09:18:53;14.70;99.90
34279;DHT22;20538;51.528;9.942;2023-04-24T09:21:21;14.70;99.90
34279;DHT22;20538;51.528;9.942;2023-04-24T09:24:04;14.20;99.90
34279;DHT22;20538;51.528;9.942;2023-04-24T09:26:31;13.90;99.90
34279;DHT22;20538;51.528;9.942;2023-04-24T09:28:58;13.50;99.90
34279;DHT22;20538;51.528;9.942;2023-04-24T09:31:27;13.30;99.90
34279;DHT22;20538;51.528;9.942;2023-04-24T09:34:13;13.20;99.90
34279;DHT22;20538;51.528;9.942;2023-04-24T09:36:43;13.10;99.90
34279;DHT22;20538;51.528;9.942;2023-04-24T09:39:14;13.00;99.90
34279;DHT22;20538;51.528;9.942;2023-04-24T09:41:53;13.10;99.90
34279;DHT22;20538;51.528;9.942;2023-04-24T09:44:26;13.10;99.90
34279;DHT22;20538;51.528;9.942;2023-04-24T09:47:00;13.00;99.90
34279;DHT22;20538;51.528;9.942;2023-04-24T09:49:32;13.00;99.90
34279;DHT22;20538;51.528;9.942;2023-04-24T09:52:07;13.00;99.90
34279;DHT22;20538;51.528;9.942;2023-04-24T09:54:33;12.90;99.90
34279;DHT22;20538;51.528;9.942;2023-04-24T09:56:59;12.80;99.90
34279;DHT22;20538;51.528;9.942;2023-04-24T09:59:28;12.80;99.90
34279;DHT22;20538;51.528;9.942;2023-04-24T10:01:54;12.80;99.90
34279;DHT22;20538;51.528;9.942;2023-04-24T10:04:25;12.90;99.90
34279;DHT22;20538;51.528;9.942;2023-04-24T10:06:53;13.20;99.90
34279;DHT22;20538;51.528;9.942;2023-04-24T10:09:24;13.30;99.90
34279;DHT22;20538;51.528;9.942;2023-04-24T10:11:52;13.50;99.90
34279;DHT22;20538;51.528;9.942;2023-04-24T10:14:20;13.40;99.90
34279;DHT22;20538;51.528;9.942;2023-04-24T10:16:47;13.30;99.90
34279;DHT22;20538;51.528;9.942;2023-04-24T10:19:15;13.20;99.90
34279;DHT22;20538;51.528;9.942;2023-04-24T10:21:43;13.20;99.90
34279;DHT22;20538;51.528;9.942;2023-04-24T10:24:13;13.30;99.90
34279;DHT22;20538;51.528;9.942;2023-04-24T10:26:40;13.40;99.90
34279;DHT22;20538;51.528;9.942;2023-04-24T10:29:06;13.60;99.90
34279;DHT22;20538;51.528;9.942;2023-04-24T10:31:36;13.90;99.90
34279;DHT22;20538;51.528;9.942;2023-04-24T10:34:04;14.20;99.90
34279;DHT22;20538;51.528;9.942;2023-04-24T10:36:31;14.20;99.90
34279;DHT22;20538;51.528;9.942;2023-04-24T10:39:00;14.30;99.90
34279;DHT22;20538;51.528;9.942;2023-04-24T10:41:26;14.40;99.90
34279;DHT22;20538;51.528;9.942;2023-04-24T10:44:18;14.50;99.90
34279;DHT22;20538;51.528;9.942;2023-04-24T10:46:53;14.80;99.90
34279;DHT22;20538;51.528;9.942;2023-04-24T10:49:30;14.90;99.90
34279;DHT22;20538;51.528;9.942;2023-04-24T10:52:01;14.80;99.90
34279;DHT22;20538;51.528;9.942;2023-04-24T10:54:49;14.60;99.90
34279;DHT22;20538;51.528;9.942;2023-04-24T10:59:48;14.80;99.90
34279;DHT22;20538;51.528;9.942;2023-04-24T11:02:18;15.20;99.90
34279;DHT22;20538;51.528;9.942;2023-04-24T11:04:44;15.40;99.90
34279;DHT22;20538;51.528;9.942;2023-04-24T11:07:13;15.60;99.90
34279;DHT22;20538;51.528;9.942;2023-04-24T11:09:39;15.60;99.90
34279;DHT22;20538;51.528;9.942;2023-04-24T11:12:09;15.20;99.90
34279;DHT22;20538;51.528;9.942;2023-04-24T11:15:00;15.40;99.90
34279;DHT22;20538;51.528;9.942;2023-04-24T11:17:36;15.30;99.90
34279;DHT22;20538;51.528;9.942;2023-04-24T11:20:09;15.50;99.90
34279;DHT22;20538;51.528;9.942;2023-04-24T11:22:37;15.00;99.90
34279;DHT22;20538;51.528;9.942;2023-04-24T11:25:07;15.00;99.90
34279;DHT22;20538;51.528;9.942;2023-04-24T11:27:43;15.00;99.90
34279;DHT22;20538;51.528;9.942;2023-04-24T11:30:10;15.10;99.90
34279;DHT22;20538;51.528;9.942;2023-04-24T11:32:41;15.10;99.90
34279;DHT22;20538;51.528;9.942;2023-04-24T11:35:13;14.60;99.90
34279;DHT22;20538;51.528;9.942;2023-04-24T11:37:41;14.20;99.90
34279;DHT22;20538;51.528;9.942;2023-04-24T11:40:10;13.40;99.90
34279;DHT22;20538;51.528;9.942;2023-04-24T11:42:38;13.30;99.90
34279;DHT22;20538;51.528;9.942;2023-04-24T11:47:34;13.20;99.90
34279;DHT22;20538;51.528;9.942;2023-04-24T11:50:00;13.50;99.90
34279;DHT22;20538;51.528;9.942;2023-04-24T11:52:30;13.40;99.90
34279;DHT22;20538;51.528;9.942;2023-04-24T11:54:56;13.60;99.90
34279;DHT22;20538;51.528;9.942;2023-04-24T11:57:25;14.00;99.90
34279;DHT22;20538;51.528;9.942;2023-04-24T11:59:54;13.90;99.90
34279;DHT22;20538;51.528;9.942;2023-04-24T12:02:23;13.60;99.90
34279;DHT22;20538;51.528;9.942;2023-04-24T12:04:50;13.50;99.90
34279;DHT22;20538;51.528;9.942;2023-04-24T12:07:16;13.60;99.90
34279;DHT22;20538;51.528;9.942;2023-04-24T12:12:16;14.20;99.90
34279;DHT22;20538;51.528;9.942;2023-04-24T12:17:09;13.60;99.90
34279;DHT22;20538;51.528;9.942;2023-04-24T12:19:36;13.80;99.90
34279;DHT22;20538;51.528;9.942;2023-04-24T12:22:04;13.70;99.90
34279;DHT22;20538;51.528;9.942;2023-04-24T12:24:34;13.50;99.90
34279;DHT22;20538;51.528;9.942;2023-04-24T12:27:00;13.10;99.90
34279;DHT22;20538;51.528;9.942;2023-04-24T12:29:27;12.80;99.90
34279;DHT22;20538;51.528;9.942;2023-04-24T12:31:54;12.70;99.90
34279;DHT22;20538;51.528;9.942;2023-04-24T12:34:21;12.60;99.90
34279;DHT22;20538;51.528;9.942;2023-04-24T12:36:47;12.50;99.90
34279;DHT22;20538;51.528;9.942;2023-04-24T12:39:17;12.30;99.90
34279;DHT22;20538;51.528;9.942;2023-04-24T12:41:56;12.10;99.90
34279;DHT22;20538;51.528;9.942;2023-04-24T12:44:32;12.10;99.90
34279;DHT22;20538;51.528;9.942;2023-04-24T12:47:00;12.00;99.90
34279;DHT22;20538;51.528;9.942;2023-04-24T12:49:26;11.60;99.90
34279;DHT22;20538;51.528;9.942;2023-04-24T12:51:52;11.90;99.90
34279;DHT22;20538;51.528;9.942;2023-04-24T12:54:18;11.90;99.90
34279;DHT22;20538;51.528;9.942;2023-04-24T12:56:44;12.20;99.90
34279;DHT22;20538;51.528;9.942;2023-04-24T12:59:09;12.00;99.90
34279;DHT22;20538;51.528;9.942;2023-04-24T13:01:38;12.10;99.90
34279;DHT22;20538;51.528;9.942;2023-04-24T13:04:05;11.80;99.90
34279;DHT22;20538;51.528;9.942;2023-04-24T13:06:31;11.80;99.90
34279;DHT22;20538;51.528;9.942;2023-04-24T13:08:57;11.80;99.90
34279;DHT22;20538;51.528;9.942;2023-04-24T13:11:24;11.80;99.90
34279;DHT22;20538;51.528;9.942;2023-04-24T13:13:52;11.50;99.90
34279;DHT22;20538;51.528;9.942;2023-04-24T13:16:18;11.60;99.90
34279;DHT22;20538;51.528;9.942;2023-04-24T13:18:44;11.80;99.90
34279;DHT22;20538;51.528;9.942;2023-04-24T13:21:10;11.90;99.90
34279;DHT22;20538;51.528;9.942;2023-04-24T13:23:36;12.10;99.90
34279;DHT22;20538;51.528;9.942;2023-04-24T13:26:03;11.60;99.90
34279;DHT22;20538;51.528;9.942;2023-04-24T13:28:29;11.50;99.90
34279;DHT22;20538;51.528;9.942;2023-04-24T13:30:55;11.20;99.90
34279;DHT22;20538;51.528;9.942;2023-04-24T13:33:21;10.90;99.90
34279;DHT22;20538;51.528;9.942;2023-04-24T13:35:46;10.90;99.90
34279;DHT22;20538;51.528;9.942;2023-04-24T13:38:12;11.10;99.90
34279;DHT22;20538;51.528;9.942;2023-04-24T13:40:37;11.10;99.90
34279;DHT22;20538;51.528;9.942;2023-04-24T13:43:03;11.60;99.90
34279;DHT22;20538;51.528;9.942;2023-04-24T13:45:29;11.70;99.90
34279;DHT22;20538;51.528;9.942;2023-04-24T13:47:54;11.30;99.90
34279;DHT22;20538;51.528;9.942;2023-04-24T13:50:22;11.20;99.90
34279;DHT22;20538;51.528;9.942;2023-04-24T13:52:47;11.70;99.90
34279;DHT22;20538;51.528;9.942;2023-04-24T13:55:13;11.40;99.90
34279;DHT22;20538;51.528;9.942;2023-04-24T13:57:39;12.10;99.90
34279;DHT22;20538;51.528;9.942;2023-04-24T14:00:05;12.60;99.90
34279;DHT22;20538;51.528;9.942;2023-04-24T14:02:32;12.80;99.90
34279;DHT22;20538;51.528;9.942;2023-04-24T14:04:58;12.40;99.90
34279;DHT22;20538;51.528;9.942;2023-04-24T14:07:23;12.20;99.90
34279;DHT22;20538;51.528;9.942;2023-04-24T14:09:49;11.50;99.90
34279;DHT22;20538;51.528;9.942;2023-04-24T14:12:16;11.60;99.90
34279;DHT22;20538;51.528;9.942;2023-04-24T14:14:44;11.90;99.90
34279;DHT22;20538;51.528;9.942;2023-04-24T14:17:10;11.80;99.90
34279;DHT22;20538;51.528;9.942;2023-04-24T14:19:35;11.80;99.90
34279;DHT22;20538;51.528;9.942;2023-04-24T14:22:01;11.80;99.90
34279;DHT22;20538;51.528;9.942;2023-04-24T14:24:27;10.70;99.90
34279;DHT22;20538;51.528;9.942;2023-04-24T14:26:56;11.00;99.90
34279;DHT22;20538;51.528;9.942;2023-04-24T14:29:22;11.60;99.90
34279;DHT22;20538;51.528;9.942;2023-04-24T14:31:48;11.60;99.90
34279;DHT22;20538;51.528;9.942;2023-04-24T14:34:14;11.80;99.90
34279;DHT22;20538;51.528;9.942;2023-04-24T14:36:40;12.30;99.90
34279;DHT22;20538;51.528;9.942;2023-04-24T14:39:06;12.00;99.90
34279;DHT22;20538;51.528;9.942;2023-04-24T14:41:32;11.50;99.90
34279;DHT22;20538;51.528;9.942;2023-04-24T14:44:01;11.30;99.90
34279;DHT22;20538;51.528;9.942;2023-04-24T14:46:29;11.40;99.90
34279;DHT22;20538;51.528;9.942;2023-04-24T14:48:57;10.70;99.90
34279;DHT22;20538;51.528;9.942;2023-04-24T14:51:23;10.80;99.90
34279;DHT22;20538;51.528;9.942;2023-04-24T14:53:48;10.70;99.90
34279;DHT22;20538;51.528;9.942;2023-04-24T14:56:15;10.60;99.90
34279;DHT22;20538;51.528;9.942;2023-04-24T14:58:40;10.80;99.90
34279;DHT22;20538;51.528;9.942;2023-04-24T15:01:06;10.50;99.90
34279;DHT22;20538;51.528;9.942;2023-04-24T15:03:32;10.30;99.90
34279;DHT22;20538;51.528;9.942;2023-04-24T15:05:57;10.20;99.90
34279;DHT22;20538;51.528;9.942;2023-04-24T15:08:23;10.50;99.90
34279;DHT22;20538;51.528;9.942;2023-04-24T15:10:49;10.50;99.90
34279;DHT22;20538;51.528;9.942;2023-04-24T15:13:15;10.30;99.90
34279;DHT22;20538;51.528;9.942;2023-04-24T15:15:41;10.10;99.90
34279;DHT22;20538;51.528;9.942;2023-04-24T15:18:08;10.00;99.90
34279;DHT22;20538;51.528;9.942;2023-04-24T15:20:36;10.00;99.90
34279;DHT22;20538;51.528;9.942;2023-04-24T15:23:08;9.90;99.90
34279;DHT22;20538;51.528;9.942;2023-04-24T15:25:34;10.20;99.90
34279;DHT22;20538;51.528;9.942;2023-04-24T15:27:59;10.10;99.90
34279;DHT22;20538;51.528;9.942;2023-04-24T15:30:26;10.20;99.90
34279;DHT22;20538;51.528;9.942;2023-04-24T15:32:54;10.60;99.90
34279;DHT22;20538;51.528;9.942;2023-04-24T15:35:20;10.80;99.90
34279;DHT22;20538;51.528;9.942;2023-04-24T15:37:46;10.90;99.90